createdAt,value
2019-05-20T00:00:20.886Z,13.40
2019-05-20T00:02:50.064Z,13.40
2019-05-20T00:05:19.264Z,13.30
2019-05-20T00:07:48.334Z,13.30
2019-05-20T00:10:17.750Z,13.30
2019-05-20T00:12:46.933Z,13.30
2019-05-20T00:15:16.399Z,13.30
2019-05-20T00:17:45.581Z,13.30
2019-05-20T00:20:15.155Z,13.30
2019-05-20T00:22:44.254Z,13.20
2019-05-20T00:25:13.377Z,13.20
2019-05-20T00:27:42.675Z,13.20
2019-05-20T00:30:14.208Z,13.20
2019-05-20T00:32:43.407Z,13.20
2019-05-20T00:35:13.031Z,13.20
2019-05-20T00:37:42.147Z,13.20
2019-05-20T00:40:12.183Z,13.10
2019-05-20T00:42:41.480Z,13.10
2019-05-20T00:45:12.600Z,13.20
2019-05-20T00:47:41.757Z,13.10
2019-05-20T00:50:11.451Z,13.20
2019-05-20T00:52:40.583Z,13.10
2019-05-20T00:55:18.275Z,13.10
2019-05-20T00:57:47.422Z,13.20
2019-05-20T01:00:16.651Z,13.10
2019-05-20T01:02:56.403Z,13.10
2019-05-20T01:05:16.711Z,13.10
2019-05-20T01:07:46.013Z,13.10
2019-05-20T01:10:15.670Z,13.10
2019-05-20T01:12:44.803Z,13.10
2019-05-20T01:15:14.649Z,13.10
2019-05-20T01:17:43.759Z,13.10
2019-05-20T01:20:14.101Z,13.10
2019-05-20T01:22:43.215Z,13.00
2019-05-20T01:25:12.723Z,13.10
2019-05-20T01:27:41.815Z,13.10
2019-05-20T01:30:11.975Z,13.00
2019-05-20T01:32:41.142Z,13.00
2019-05-20T01:35:10.539Z,13.00
2019-05-20T01:37:39.634Z,13.00
2019-05-20T01:40:08.826Z,13.10
2019-05-20T01:42:38.023Z,13.10
2019-05-20T01:45:07.759Z,13.10
2019-05-20T01:47:36.951Z,13.00
2019-05-20T01:50:06.728Z,13.00
2019-05-20T01:52:35.875Z,13.10
2019-05-20T01:55:06.116Z,13.10
2019-05-20T01:57:35.283Z,13.00
2019-05-20T02:00:06.281Z,13.10
2019-05-20T02:02:35.366Z,13.00
2019-05-20T02:05:05.531Z,13.00
2019-05-20T02:07:34.704Z,13.00
2019-05-20T02:10:04.207Z,13.00
2019-05-20T02:12:33.396Z,13.00
2019-05-20T02:15:08.561Z,13.10
2019-05-20T02:17:37.667Z,13.10
2019-05-20T02:20:07.172Z,13.10
2019-05-20T02:22:36.664Z,13.10
2019-05-20T02:25:07.435Z,13.10
2019-05-20T02:27:36.516Z,13.10
2019-05-20T02:30:05.994Z,13.10
2019-05-20T02:32:35.182Z,13.10
2019-05-20T02:35:04.585Z,13.10
2019-05-20T02:37:33.617Z,13.10
2019-05-20T02:40:02.802Z,13.10
2019-05-20T02:42:32.111Z,13.10
2019-05-20T02:45:01.276Z,13.00
2019-05-20T02:47:30.516Z,13.00
2019-05-20T02:49:59.601Z,13.00
2019-05-20T02:52:28.790Z,13.00
2019-05-20T02:54:57.987Z,13.00
2019-05-20T02:57:27.263Z,13.00
2019-05-20T02:59:56.263Z,13.00
2019-05-20T03:02:25.367Z,13.00
2019-05-20T03:04:54.393Z,13.00
2019-05-20T03:07:23.515Z,13.00
2019-05-20T03:09:52.678Z,13.10
2019-05-20T03:12:21.942Z,13.10
2019-05-20T03:14:51.093Z,13.00
2019-05-20T03:17:20.252Z,13.10
2019-05-20T03:19:49.425Z,13.00
2019-05-20T03:22:18.527Z,13.00
2019-05-20T03:24:47.705Z,13.00
2019-05-20T03:27:16.733Z,13.00
2019-05-20T03:29:45.967Z,13.00
2019-05-20T03:32:15.051Z,13.00
2019-05-20T03:34:51.314Z,13.00
2019-05-20T03:37:15.052Z,13.00
2019-05-20T03:39:44.234Z,13.00
2019-05-20T03:42:13.351Z,13.00
2019-05-20T03:44:42.557Z,13.00
2019-05-20T03:47:11.705Z,13.00
2019-05-20T03:49:40.852Z,13.00
2019-05-20T03:52:09.928Z,13.00
2019-05-20T03:54:39.048Z,13.00
2019-05-20T03:57:08.139Z,13.00
2019-05-20T03:59:37.297Z,13.00
2019-05-20T04:02:06.416Z,13.00
2019-05-20T04:04:35.482Z,13.00
2019-05-20T04:07:04.620Z,13.00
2019-05-20T04:09:33.783Z,13.00
2019-05-20T04:12:02.880Z,13.00
2019-05-20T04:14:31.992Z,13.00
2019-05-20T04:17:01.114Z,13.00
2019-05-20T04:19:30.740Z,13.00
2019-05-20T04:21:59.951Z,13.00
2019-05-20T04:24:29.133Z,13.00
2019-05-20T04:27:01.424Z,13.00
2019-05-20T04:29:30.515Z,13.00
2019-05-20T04:31:59.715Z,13.00
2019-05-20T04:34:29.117Z,13.00
2019-05-20T04:36:58.183Z,13.00
2019-05-20T04:39:27.449Z,13.00
2019-05-20T04:41:56.545Z,13.00
2019-05-20T04:44:25.919Z,13.00
2019-05-20T04:46:57.893Z,13.00
2019-05-20T04:49:25.947Z,13.00
2019-05-20T04:51:55.194Z,13.00
2019-05-20T04:54:24.378Z,13.00
2019-05-20T04:56:53.528Z,13.00
2019-05-20T04:59:22.827Z,13.00
2019-05-20T05:01:51.945Z,13.00
2019-05-20T05:04:21.017Z,13.00
2019-05-20T05:06:50.136Z,12.90
2019-05-20T05:09:19.253Z,13.00
2019-05-20T05:11:48.407Z,12.90
2019-05-20T05:14:17.573Z,13.00
2019-05-20T05:16:46.820Z,13.00
2019-05-20T05:19:15.918Z,13.00
2019-05-20T05:21:45.066Z,13.00
2019-05-20T05:24:14.210Z,13.00
2019-05-20T05:26:43.329Z,13.00
2019-05-20T05:29:12.567Z,13.00
2019-05-20T05:31:42.239Z,13.00
2019-05-20T05:34:30.544Z,13.00
2019-05-20T05:36:59.646Z,13.00
2019-05-20T05:39:28.770Z,13.00
2019-05-20T05:41:57.909Z,13.10
2019-05-20T05:44:26.987Z,13.10
2019-05-20T05:46:56.107Z,13.10
2019-05-20T05:49:25.278Z,13.10
2019-05-20T05:51:54.429Z,13.10
2019-05-20T05:54:23.528Z,13.10
2019-05-20T05:56:52.715Z,13.20
2019-05-20T05:59:21.816Z,13.20
2019-05-20T06:01:50.922Z,13.20
2019-05-20T06:04:20.340Z,13.20
2019-05-20T06:06:49.436Z,13.20
2019-05-20T06:09:18.607Z,13.20
2019-05-20T06:11:47.749Z,13.30
2019-05-20T06:14:16.859Z,13.30
2019-05-20T06:16:45.954Z,13.30
2019-05-20T06:19:14.987Z,13.30
2019-05-20T06:21:44.229Z,13.40
2019-05-20T06:24:13.284Z,13.40
2019-05-20T06:26:42.291Z,13.40
2019-05-20T06:29:11.463Z,13.40
2019-05-20T06:31:40.583Z,13.50
2019-05-20T06:34:09.774Z,13.50
2019-05-20T06:36:43.258Z,13.50
2019-05-20T06:39:13.194Z,13.50
2019-05-20T06:41:43.100Z,13.50
2019-05-20T06:44:12.530Z,13.70
2019-05-20T06:46:41.790Z,13.70
2019-05-20T06:49:10.894Z,13.80
2019-05-20T06:51:40.026Z,13.70
2019-05-20T06:54:09.182Z,13.70
2019-05-20T06:56:38.338Z,13.80
2019-05-20T06:59:10.121Z,13.80
2019-05-20T07:01:39.218Z,13.80
2019-05-20T07:04:08.385Z,13.90
2019-05-20T07:06:46.792Z,13.90
2019-05-20T07:09:08.359Z,13.90
2019-05-20T07:11:37.535Z,14.00
2019-05-20T07:14:06.697Z,14.00
2019-05-20T07:16:35.869Z,13.90
2019-05-20T07:19:07.623Z,14.00
2019-05-20T07:21:36.716Z,13.90
2019-05-20T07:24:06.218Z,13.90
2019-05-20T07:26:35.435Z,13.90
2019-05-20T07:29:04.570Z,14.00
2019-05-20T07:31:33.997Z,14.00
2019-05-20T07:34:03.165Z,14.00
2019-05-20T07:36:32.376Z,14.10
2019-05-20T07:39:01.495Z,14.20
2019-05-20T07:41:30.522Z,14.20
2019-05-20T07:43:59.623Z,14.10
2019-05-20T07:46:29.558Z,14.20
2019-05-20T07:49:00.129Z,14.20
2019-05-20T07:51:31.094Z,14.20
2019-05-20T07:54:01.767Z,14.30
2019-05-20T07:56:34.298Z,14.40
2019-05-20T07:59:06.024Z,14.40
2019-05-20T08:01:35.312Z,14.40
2019-05-20T08:04:04.526Z,14.40
2019-05-20T08:06:33.873Z,14.40
2019-05-20T08:09:03.170Z,14.40
2019-05-20T08:11:32.253Z,14.40
2019-05-20T08:14:01.392Z,14.50
2019-05-20T08:16:30.492Z,14.50
2019-05-20T08:18:59.595Z,14.50
2019-05-20T08:21:28.720Z,14.50
2019-05-20T08:23:57.905Z,14.60
2019-05-20T08:26:27.104Z,14.70
2019-05-20T08:28:56.346Z,14.70
2019-05-20T08:31:25.876Z,14.70
2019-05-20T08:33:55.022Z,14.80
2019-05-20T08:36:24.254Z,14.90
2019-05-20T08:38:53.409Z,14.90
2019-05-20T08:41:22.532Z,14.80
2019-05-20T08:43:51.682Z,14.80
2019-05-20T08:46:20.804Z,14.70
2019-05-20T08:48:49.891Z,14.80
2019-05-20T08:51:19.171Z,14.80
2019-05-20T08:53:48.382Z,14.80
2019-05-20T08:56:17.574Z,14.80
2019-05-20T08:58:47.091Z,14.80
2019-05-20T09:01:16.717Z,14.90
2019-05-20T09:03:45.893Z,15.00
2019-05-20T09:06:15.050Z,15.10
2019-05-20T09:08:44.412Z,15.10
2019-05-20T09:11:13.593Z,15.10
2019-05-20T09:13:42.774Z,15.10
2019-05-20T09:16:11.923Z,15.30
2019-05-20T09:18:41.008Z,15.30
2019-05-20T09:21:10.571Z,15.30
2019-05-20T09:23:40.309Z,15.30
2019-05-20T09:26:09.444Z,15.30
2019-05-20T09:28:38.604Z,15.30
2019-05-20T09:31:07.899Z,15.30
2019-05-20T09:33:38.184Z,15.30
2019-05-20T09:36:07.832Z,15.50
2019-05-20T09:38:37.275Z,15.50
2019-05-20T09:41:06.645Z,15.60
2019-05-20T09:43:35.860Z,15.50
2019-05-20T09:46:07.925Z,15.60
2019-05-20T09:48:35.855Z,15.60
2019-05-20T09:51:05.043Z,15.70
2019-05-20T09:53:34.223Z,15.70
2019-05-20T09:56:03.347Z,15.70
2019-05-20T09:58:32.463Z,15.70
2019-05-20T10:01:01.559Z,15.80
2019-05-20T10:03:30.745Z,15.80
2019-05-20T10:05:59.936Z,15.90
2019-05-20T10:08:38.057Z,16.10
2019-05-20T10:11:00.581Z,16.20
2019-05-20T10:13:30.543Z,16.30
2019-05-20T10:15:59.696Z,16.20
2019-05-20T10:18:37.478Z,16.20
2019-05-20T10:20:59.651Z,16.20
2019-05-20T10:23:28.731Z,16.20
2019-05-20T10:25:57.934Z,16.20
2019-05-20T10:28:27.476Z,16.30
2019-05-20T10:30:56.666Z,16.40
2019-05-20T10:33:25.873Z,16.40
2019-05-20T10:35:54.983Z,16.50
2019-05-20T10:38:24.185Z,16.70
2019-05-20T10:40:53.374Z,16.80
2019-05-20T10:43:22.521Z,16.90
2019-05-20T10:45:51.601Z,16.90
2019-05-20T10:48:20.687Z,16.90
2019-05-20T10:50:49.895Z,17.00
2019-05-20T10:53:19.079Z,17.10
2019-05-20T10:55:48.425Z,17.00
2019-05-20T10:58:17.587Z,16.90
2019-05-20T11:01:01.776Z,16.90
2019-05-20T11:03:18.452Z,16.90
2019-05-20T11:05:47.771Z,16.90
2019-05-20T11:08:16.983Z,17.10
2019-05-20T11:10:46.087Z,17.20
2019-05-20T11:13:16.115Z,17.30
2019-05-20T11:15:45.258Z,17.50
2019-05-20T11:18:14.517Z,17.60
2019-05-20T11:20:43.989Z,18.00
2019-05-20T11:23:13.129Z,18.20
2019-05-20T11:25:42.301Z,18.30
2019-05-20T11:28:12.084Z,18.40
2019-05-20T11:30:41.612Z,18.40
2019-05-20T11:33:10.768Z,18.40
2019-05-20T11:35:40.120Z,18.30
2019-05-20T11:38:09.819Z,18.10
2019-05-20T11:40:38.909Z,18.00
2019-05-20T11:43:08.004Z,17.90
2019-05-20T11:45:37.468Z,17.90
2019-05-20T11:48:06.641Z,17.90
2019-05-20T11:50:43.018Z,17.90
2019-05-20T11:53:12.212Z,17.90
2019-05-20T11:55:41.798Z,17.80
2019-05-20T11:58:16.145Z,17.70
2019-05-20T12:00:41.875Z,17.70
2019-05-20T12:03:11.105Z,17.90
2019-05-20T12:05:40.337Z,17.90
2019-05-20T12:08:09.483Z,17.90
2019-05-20T12:10:38.884Z,18.00
2019-05-20T12:13:08.243Z,18.00
2019-05-20T12:15:37.341Z,18.00
2019-05-20T12:18:06.783Z,18.10
2019-05-20T12:20:35.916Z,18.10
2019-05-20T12:23:05.192Z,18.10
2019-05-20T12:25:34.184Z,18.00
2019-05-20T12:28:03.407Z,18.10
2019-05-20T12:30:32.537Z,18.30
2019-05-20T12:33:18.097Z,18.30
2019-05-20T12:35:32.376Z,18.50
2019-05-20T12:38:01.414Z,18.50
2019-05-20T12:40:30.800Z,18.40
2019-05-20T12:42:59.920Z,18.50
2019-05-20T12:45:29.055Z,18.50
2019-05-20T12:47:58.138Z,18.50
2019-05-20T12:50:27.327Z,18.40
2019-05-20T12:52:56.844Z,18.40
2019-05-20T12:55:26.014Z,18.30
2019-05-20T12:57:55.241Z,18.30
2019-05-20T13:00:24.545Z,18.30
2019-05-20T13:02:53.837Z,18.20
2019-05-20T13:05:22.848Z,18.20
2019-05-20T13:07:52.013Z,18.30
2019-05-20T13:10:31.710Z,18.20
2019-05-20T13:12:52.318Z,18.20
2019-05-20T13:15:21.845Z,18.20
2019-05-20T13:17:51.374Z,18.20
2019-05-20T13:20:20.552Z,18.30
2019-05-20T13:22:49.925Z,18.30
2019-05-20T13:25:19.573Z,18.40
2019-05-20T13:28:07.797Z,18.40
2019-05-20T13:30:36.929Z,18.30
2019-05-20T13:33:06.075Z,18.20
2019-05-20T13:35:35.187Z,18.30
2019-05-20T13:38:04.518Z,18.20
2019-05-20T13:40:45.940Z,18.20
2019-05-20T13:43:04.561Z,18.20
2019-05-20T13:45:33.928Z,18.10
2019-05-20T13:48:03.167Z,18.00
2019-05-20T13:50:32.282Z,18.00
2019-05-20T13:53:01.378Z,18.00
2019-05-20T13:55:30.632Z,18.10
2019-05-20T13:58:00.107Z,18.20
2019-05-20T14:00:29.243Z,18.20
2019-05-20T14:02:58.409Z,18.20
2019-05-20T14:05:27.486Z,18.10
2019-05-20T14:07:56.744Z,18.10
2019-05-20T14:10:25.856Z,18.10
2019-05-20T14:12:54.994Z,18.10
2019-05-20T14:15:24.084Z,18.00
2019-05-20T14:17:53.212Z,18.00
2019-05-20T14:20:22.707Z,17.80
2019-05-20T14:22:51.944Z,17.70
2019-05-20T14:25:21.145Z,17.60
2019-05-20T14:27:51.185Z,17.50
2019-05-20T14:30:20.357Z,17.50
2019-05-20T14:32:49.432Z,17.40
2019-05-20T14:35:18.568Z,17.40
2019-05-20T14:37:47.932Z,17.40
2019-05-20T14:40:17.459Z,17.30
2019-05-20T14:42:46.599Z,17.30
2019-05-20T14:45:16.048Z,17.30
2019-05-20T14:47:45.292Z,17.30
2019-05-20T14:50:15.920Z,17.30
2019-05-20T14:52:45.042Z,17.20
2019-05-20T14:55:14.426Z,17.10
2019-05-20T14:57:43.639Z,17.10
2019-05-20T15:00:13.388Z,17.10
2019-05-20T15:02:42.483Z,17.00
2019-05-20T15:05:12.252Z,17.00
2019-05-20T15:07:41.491Z,16.90
2019-05-20T15:10:11.668Z,16.90
2019-05-20T15:12:40.769Z,17.00
2019-05-20T15:15:12.548Z,16.90
2019-05-20T15:17:41.885Z,16.90
2019-05-20T15:20:11.672Z,16.90
2019-05-20T15:22:41.962Z,16.90
2019-05-20T15:25:11.745Z,16.80
2019-05-20T15:27:41.023Z,16.80
2019-05-20T15:30:11.071Z,16.70
2019-05-20T15:32:40.875Z,16.60
2019-05-20T15:35:10.378Z,16.60
2019-05-20T15:37:41.940Z,16.50
2019-05-20T15:40:12.027Z,16.40
2019-05-20T15:42:41.337Z,16.40
2019-05-20T15:45:11.914Z,16.30
2019-05-20T15:47:41.330Z,16.30
2019-05-20T15:50:11.036Z,16.20
2019-05-20T15:52:40.490Z,16.20
2019-05-20T15:55:09.878Z,16.10
2019-05-20T15:57:39.023Z,16.10
2019-05-20T16:00:09.616Z,16.00
2019-05-20T16:02:38.770Z,16.10
2019-05-20T16:05:08.346Z,16.00
2019-05-20T16:07:37.777Z,15.90
2019-05-20T16:10:07.819Z,15.80
2019-05-20T16:12:37.157Z,15.80
2019-05-20T16:15:07.384Z,15.90
2019-05-20T16:17:36.569Z,15.80
2019-05-20T16:20:09.430Z,15.70
2019-05-20T16:22:38.896Z,15.70
2019-05-20T16:25:08.897Z,15.80
2019-05-20T16:27:38.088Z,15.80
2019-05-20T16:30:08.172Z,15.80
2019-05-20T16:32:37.283Z,15.80
2019-05-20T16:35:07.242Z,15.80
2019-05-20T16:37:36.436Z,15.80
2019-05-20T16:40:06.411Z,15.80
2019-05-20T16:42:35.752Z,15.80
2019-05-20T16:45:05.967Z,15.80
2019-05-20T16:47:35.377Z,15.80
2019-05-20T16:50:05.253Z,15.80
2019-05-20T16:52:35.120Z,15.70
2019-05-20T16:55:04.409Z,15.70
2019-05-20T16:57:33.755Z,15.60
2019-05-20T17:00:03.017Z,15.60
2019-05-20T17:02:32.264Z,15.70
2019-05-20T17:05:01.394Z,15.70
2019-05-20T17:07:30.827Z,15.60
2019-05-20T17:09:59.999Z,15.60
2019-05-20T17:12:31.932Z,15.50
2019-05-20T17:15:04.170Z,15.50
2019-05-20T17:17:33.413Z,15.50
2019-05-20T17:20:02.589Z,15.50
2019-05-20T17:22:31.693Z,15.60
2019-05-20T17:25:00.934Z,15.60
2019-05-20T17:27:29.998Z,15.60
2019-05-20T17:29:59.174Z,15.70
2019-05-20T17:32:28.550Z,15.70
2019-05-20T17:34:57.791Z,15.80
2019-05-20T17:37:27.491Z,15.90
2019-05-20T17:39:56.940Z,15.90
2019-05-20T17:42:26.486Z,15.70
2019-05-20T17:44:56.115Z,15.60
2019-05-20T17:47:25.814Z,15.50
2019-05-20T17:49:54.995Z,15.60
2019-05-20T17:52:24.286Z,15.80
2019-05-20T17:54:53.529Z,15.70
2019-05-20T17:57:22.666Z,15.40
2019-05-20T17:59:51.764Z,15.30
2019-05-20T18:02:20.933Z,15.30
2019-05-20T18:04:50.160Z,15.20
2019-05-20T18:07:19.347Z,15.00
2019-05-20T18:09:50.558Z,15.00
2019-05-20T18:12:19.698Z,15.10
2019-05-20T18:14:52.682Z,15.10
2019-05-20T18:17:22.564Z,15.20
2019-05-20T18:19:52.053Z,15.40
2019-05-20T18:22:21.265Z,15.50
2019-05-20T18:24:50.435Z,15.40
2019-05-20T18:27:19.567Z,15.40
2019-05-20T18:29:48.693Z,15.30
2019-05-20T18:32:17.811Z,15.10
2019-05-20T18:34:46.981Z,15.00
2019-05-20T18:37:16.107Z,15.00
2019-05-20T18:39:45.181Z,14.90
2019-05-20T18:42:14.314Z,14.80
2019-05-20T18:44:43.400Z,14.70
2019-05-20T18:47:12.477Z,14.70
2019-05-20T18:49:41.549Z,14.70
2019-05-20T18:52:10.740Z,14.60
2019-05-20T18:54:39.827Z,14.60
2019-05-20T18:57:08.960Z,14.60
2019-05-20T18:59:38.089Z,14.80
2019-05-20T19:02:07.260Z,15.10
2019-05-20T19:04:36.405Z,15.10
2019-05-20T19:07:05.438Z,14.90
2019-05-20T19:09:34.576Z,15.00
2019-05-20T19:12:04.071Z,15.00
2019-05-20T19:14:33.195Z,14.80
2019-05-20T19:17:02.393Z,14.70
2019-05-20T19:19:31.503Z,14.80
2019-05-20T19:22:00.660Z,14.70
2019-05-20T19:24:29.841Z,14.60
2019-05-20T19:26:58.927Z,14.70
2019-05-20T19:29:27.991Z,14.50
2019-05-20T19:32:01.824Z,14.40
2019-05-20T19:34:27.908Z,14.40
2019-05-20T19:36:57.008Z,14.20
2019-05-20T19:39:26.299Z,14.20
2019-05-20T19:41:55.412Z,14.10
2019-05-20T19:44:24.628Z,14.20
2019-05-20T19:46:53.741Z,14.10
2019-05-20T19:49:22.902Z,14.00
2019-05-20T19:51:52.123Z,14.00
2019-05-20T19:54:21.242Z,14.00
2019-05-20T19:56:50.371Z,13.90
2019-05-20T19:59:19.570Z,13.80
2019-05-20T20:01:48.684Z,13.70
2019-05-20T20:04:18.043Z,13.70
2019-05-20T20:06:47.272Z,13.60
2019-05-20T20:09:16.344Z,13.50
2019-05-20T20:11:45.555Z,13.70
2019-05-20T20:14:14.701Z,13.60
2019-05-20T20:16:43.883Z,13.50
2019-05-20T20:19:12.985Z,13.50
2019-05-20T20:21:41.998Z,13.40
2019-05-20T20:24:11.308Z,13.30
2019-05-20T20:26:40.434Z,13.30
2019-05-20T20:29:11.241Z,13.40
2019-05-20T20:31:40.516Z,13.50
2019-05-20T20:34:09.724Z,13.50
2019-05-20T20:36:39.253Z,13.30
2019-05-20T20:39:08.386Z,13.30
2019-05-20T20:41:37.535Z,13.50
2019-05-20T20:44:06.801Z,13.50
2019-05-20T20:46:36.003Z,13.50
2019-05-20T20:49:05.120Z,13.50
2019-05-20T20:51:34.267Z,13.50
2019-05-20T20:54:03.388Z,13.60
2019-05-20T20:56:34.169Z,13.40
2019-05-20T20:59:03.232Z,13.40
2019-05-20T21:01:32.374Z,13.60
2019-05-20T21:04:01.531Z,13.60
2019-05-20T21:06:30.901Z,13.40
2019-05-20T21:09:00.072Z,13.30
2019-05-20T21:11:28.999Z,13.40
2019-05-20T21:13:58.010Z,13.40
2019-05-20T21:16:27.189Z,13.30
2019-05-20T21:18:56.177Z,13.30
2019-05-20T21:21:25.273Z,13.20
2019-05-20T21:23:54.519Z,13.10
2019-05-20T21:26:23.606Z,13.10
2019-05-20T21:28:52.684Z,13.00
2019-05-20T21:31:21.921Z,13.00
2019-05-20T21:33:50.899Z,13.00
2019-05-20T21:36:19.962Z,13.00
2019-05-20T21:38:49.085Z,13.10
2019-05-20T21:41:18.219Z,13.30
2019-05-20T21:43:47.311Z,13.30
2019-05-20T21:46:16.390Z,13.30
2019-05-20T21:48:45.487Z,13.20
2019-05-20T21:51:14.768Z,13.10
2019-05-20T21:53:44.051Z,13.10
2019-05-20T21:56:13.866Z,13.30
2019-05-20T21:58:43.251Z,13.40
2019-05-20T22:01:12.819Z,13.20
2019-05-20T22:03:42.428Z,13.10
2019-05-20T22:06:11.849Z,13.20
2019-05-20T22:08:41.276Z,13.10
2019-05-20T22:11:10.651Z,13.00
2019-05-20T22:13:39.920Z,12.90
2019-05-20T22:16:09.186Z,12.90
2019-05-20T22:18:38.592Z,12.90
2019-05-20T22:21:09.718Z,12.90
2019-05-20T22:23:44.147Z,12.90
2019-05-20T22:26:13.453Z,12.80
2019-05-20T22:28:43.714Z,12.90
2019-05-20T22:31:13.015Z,12.90
2019-05-20T22:33:42.855Z,12.90
2019-05-20T22:36:12.418Z,13.00
2019-05-20T22:38:41.694Z,13.00
2019-05-20T22:41:10.996Z,13.00
2019-05-20T22:43:40.255Z,13.10
2019-05-20T22:46:09.538Z,13.10
2019-05-20T22:48:38.851Z,13.20
2019-05-20T22:51:08.319Z,13.00
2019-05-20T22:53:37.578Z,13.00
2019-05-20T22:56:06.881Z,13.00
2019-05-20T22:58:38.510Z,13.00
2019-05-20T23:01:07.220Z,13.00
2019-05-20T23:03:36.508Z,13.00
2019-05-20T23:06:05.761Z,13.10
2019-05-20T23:08:35.022Z,13.20
2019-05-20T23:11:04.308Z,13.20
2019-05-20T23:13:33.569Z,13.10
2019-05-20T23:16:02.937Z,13.30
2019-05-20T23:18:32.388Z,13.50
2019-05-20T23:21:01.708Z,13.40
2019-05-20T23:23:31.581Z,13.20
2019-05-20T23:26:00.915Z,13.10
2019-05-20T23:28:30.489Z,13.00
2019-05-20T23:30:59.838Z,12.90
2019-05-20T23:33:29.143Z,12.80
2019-05-20T23:35:58.416Z,12.90
2019-05-20T23:38:27.750Z,13.00
2019-05-20T23:40:57.080Z,13.10
2019-05-20T23:43:26.348Z,13.00
2019-05-20T23:45:55.900Z,13.00
2019-05-20T23:48:25.254Z,13.00
2019-05-20T23:50:54.575Z,13.20
2019-05-20T23:53:23.851Z,13.00
2019-05-20T23:55:53.254Z,13.00
2019-05-20T23:58:22.631Z,13.00
